Time;durP1;ratioP1;P1;durP2;ratioP2;P2;SDS_P1;SDS_P2;PMS_P1;PMS_P2;Temp;Humidity;BMP_temperature;BMP_pressure;BME280_temperature;BME280_humidity;BME280_pressure;Samples;Min_cycle;Max_cycle;Signal;HPM_P1;HPM_P2
2021/05/22 00:02:17;;;;;;;2.03;1.00;;;11.40;99.90;;;;;;5071224;28;20538;-65
2021/05/22 00:04:44;;;;;;;1.80;0.90;;;11.40;99.90;;;;;;5070481;28;20503;-64
2021/05/22 00:07:10;;;;;;;1.70;0.73;;;11.40;99.90;;;;;;5070507;28;20470;-64
2021/05/22 00:09:37;;;;;;;2.53;1.30;;;11.40;99.90;;;;;;5070790;28;20459;-63
2021/05/22 00:12:05;;;;;;;2.57;1.00;;;11.40;99.90;;;;;;5070890;28;20454;-65
2021/05/22 00:14:31;;;;;;;1.80;0.87;;;11.40;99.90;;;;;;5070275;28;21148;-65
2021/05/22 00:19:39;;;;;;;2.50;0.90;;;11.50;99.90;;;;;;5907254;22;20499;-62
2021/05/22 00:22:06;;;;;;;3.27;1.10;;;11.50;99.90;;;;;;5059685;28;20483;-63
2021/05/22 00:24:32;;;;;;;1.43;0.70;;;11.50;99.90;;;;;;5069756;28;20965;-63
2021/05/22 00:26:58;;;;;;;3.33;1.40;;;11.50;99.90;;;;;;5078176;28;21003;-64
2021/05/22 00:29:26;;;;;;;2.67;1.00;;;11.50;99.90;;;;;;5083189;28;20465;-64
2021/05/22 00:31:52;;;;;;;1.90;1.07;;;11.50;99.90;;;;;;5091114;28;20471;-62
2021/05/22 00:34:18;;;;;;;1.97;0.93;;;11.50;99.90;;;;;;5073696;28;21048;-62
2021/05/22 00:36:45;;;;;;;3.63;0.90;;;11.40;99.90;;;;;;5082021;28;20529;-62
2021/05/22 00:39:11;;;;;;;2.80;0.87;;;11.40;99.90;;;;;;5089663;28;20971;-62
2021/05/22 00:41:37;;;;;;;1.83;0.90;;;11.40;99.90;;;;;;5091834;28;20473;-63
2021/05/22 00:44:04;;;;;;;1.90;1.17;;;11.40;99.90;;;;;;5085254;28;20501;-62
2021/05/22 00:46:32;;;;;;;1.80;0.90;;;11.40;99.90;;;;;;5091348;28;20485;-60
2021/05/22 00:48:58;;;;;;;1.80;1.00;;;11.40;99.90;;;;;;5091395;28;20542;-61
2021/05/22 00:51:24;;;;;;;2.57;1.00;;;11.30;99.90;;;;;;5080078;28;20538;-62
2021/05/22 00:53:51;;;;;;;2.40;1.07;;;11.30;99.90;;;;;;5089152;28;20468;-62
2021/05/22 00:56:17;;;;;;;2.90;1.07;;;11.30;99.90;;;;;;5091087;28;20446;-62
2021/05/22 00:58:44;;;;;;;2.80;0.87;;;11.20;99.90;;;;;;5091000;28;20573;-62
2021/05/22 01:01:10;;;;;;;3.00;0.90;;;11.20;99.90;;;;;;5091844;28;20478;-63
2021/05/22 01:03:43;;;;;;;3.47;0.80;;;11.10;99.90;;;;;;5083641;28;20573;-64
2021/05/22 01:06:12;;;;;;;6.07;1.37;;;11.00;99.90;;;;;;5069533;28;20487;-63
2021/05/22 01:08:43;;;;;;;2.17;1.07;;;11.00;99.90;;;;;;5073083;28;20459;-64
2021/05/22 01:11:13;;;;;;;2.40;1.10;;;11.00;99.90;;;;;;5085848;28;21023;-63
2021/05/22 01:13:41;;;;;;;2.27;1.03;;;10.90;99.90;;;;;;5089922;28;20473;-64
2021/05/22 01:16:08;;;;;;;2.80;1.20;;;10.90;99.90;;;;;;5089795;28;20529;-63
2021/05/22 01:18:35;;;;;;;3.50;1.20;;;10.90;99.90;;;;;;5089722;28;20449;-61
2021/05/22 01:21:04;;;;;;;1.70;0.83;;;10.90;99.90;;;;;;5089601;28;20470;-63
2021/05/22 01:23:33;;;;;;;2.73;1.00;;;10.80;99.90;;;;;;5089214;28;20514;-62
2021/05/22 01:26:01;;;;;;;2.13;0.93;;;10.80;99.90;;;;;;5090185;28;21060;-63
2021/05/22 01:28:28;;;;;;;3.00;0.83;;;10.80;99.90;;;;;;5089723;28;20446;-63
2021/05/22 01:30:54;;;;;;;1.60;0.90;;;10.80;99.90;;;;;;5089822;28;20578;-64
2021/05/22 01:33:22;;;;;;;2.27;0.87;;;10.80;99.90;;;;;;5072105;28;20455;-63
2021/05/22 01:35:49;;;;;;;2.37;0.80;;;10.80;99.90;;;;;;5071745;28;20537;-63
2021/05/22 01:38:15;;;;;;;3.93;1.00;;;10.90;99.90;;;;;;5071543;28;20447;-62
2021/05/22 01:40:42;;;;;;;2.30;0.90;;;10.90;99.90;;;;;;5071263;28;20555;-64
2021/05/22 01:43:10;;;;;;;2.57;0.70;;;10.90;99.90;;;;;;5071053;28;20852;-64
2021/05/22 01:45:40;;;;;;;2.00;0.70;;;11.00;99.90;;;;;;5070910;28;20585;-63
2021/05/22 01:48:09;;;;;;;2.13;0.90;;;11.00;99.90;;;;;;5071124;28;20534;-63
2021/05/22 01:50:39;;;;;;;1.90;0.90;;;11.00;99.90;;;;;;5071396;28;20471;-62
2021/05/22 01:53:09;;;;;;;1.77;0.83;;;10.80;99.90;;;;;;5072334;28;20480;-61
2021/05/22 01:55:37;;;;;;;2.93;1.00;;;10.30;99.90;;;;;;5072132;28;20499;-61
2021/05/22 01:58:04;;;;;;;2.70;1.10;;;9.80;99.90;;;;;;5071039;28;20450;-64
2021/05/22 02:00:31;;;;;;;3.70;0.90;;;9.40;99.90;;;;;;5070880;28;20975;-64
2021/05/22 02:03:03;;;;;;;3.53;1.10;;;9.10;99.90;;;;;;5070951;28;20521;-63
2021/05/22 02:05:31;;;;;;;3.20;1.00;;;9.00;99.90;;;;;;5070622;28;21008;-63
2021/05/22 02:07:58;;;;;;;1.90;0.90;;;8.90;99.90;;;;;;5070535;28;20492;-63
2021/05/22 02:10:26;;;;;;;4.23;1.00;;;8.80;99.90;;;;;;5070235;28;20463;-64
2021/05/22 02:12:55;;;;;;;2.47;0.80;;;8.80;99.90;;;;;;5070536;28;20500;-63
2021/05/22 02:15:23;;;;;;;4.63;1.00;;;8.80;99.90;;;;;;5070740;28;20453;-63
2021/05/22 02:17:53;;;;;;;5.73;1.53;;;8.80;99.90;;;;;;5070492;28;20443;-61
2021/05/22 02:20:22;;;;;;;1.80;0.80;;;8.80;99.90;;;;;;5070064;28;20466;-63
2021/05/22 02:22:48;;;;;;;3.13;1.10;;;8.80;99.90;;;;;;5070279;28;20461;-63
2021/05/22 02:25:16;;;;;;;2.60;1.10;;;8.80;99.90;;;;;;5070270;28;20455;-62
2021/05/22 02:27:44;;;;;;;2.90;0.90;;;8.80;99.90;;;;;;5070489;28;20478;-64
2021/05/22 02:30:13;;;;;;;2.57;1.20;;;8.90;99.90;;;;;;5070027;28;20467;-61
2021/05/22 02:32:41;;;;;;;2.37;0.77;;;8.90;99.90;;;;;;5070198;28;20451;-63
2021/05/22 02:35:11;;;;;;;2.30;0.83;;;8.90;99.90;;;;;;5070367;28;20987;-63
2021/05/22 02:37:38;;;;;;;2.80;1.00;;;8.80;99.90;;;;;;5070325;28;20538;-62
2021/05/22 02:40:09;;;;;;;2.53;0.90;;;8.70;99.90;;;;;;5070169;28;20467;-64
2021/05/22 02:42:37;;;;;;;2.17;1.10;;;8.70;99.90;;;;;;5070351;28;20443;-64
2021/05/22 02:45:06;;;;;;;4.33;1.03;;;8.60;99.90;;;;;;5070116;28;20586;-64
2021/05/22 02:47:33;;;;;;;1.70;0.90;;;8.60;99.90;;;;;;5070143;28;20825;-64
2021/05/22 02:50:03;;;;;;;3.13;1.10;;;8.50;99.90;;;;;;5069954;28;20469;-64
2021/05/22 02:52:32;;;;;;;2.60;1.27;;;8.40;99.90;;;;;;5070261;28;20868;-64
2021/05/22 02:55:00;;;;;;;2.87;1.13;;;8.30;99.90;;;;;;5070251;28;20451;-65
2021/05/22 02:57:27;;;;;;;3.23;1.50;;;8.40;99.90;;;;;;5070238;28;20862;-64
2021/05/22 02:59:56;;;;;;;1.90;1.00;;;8.40;99.90;;;;;;5069578;28;20462;-65
2021/05/22 03:02:22;;;;;;;3.23;1.50;;;8.50;99.90;;;;;;5069909;28;20443;-64
2021/05/22 03:04:50;;;;;;;2.43;1.00;;;8.60;99.90;;;;;;5070427;28;20453;-64
2021/05/22 03:07:18;;;;;;;4.30;1.37;;;8.60;99.90;;;;;;5069361;28;20605;-65
2021/05/22 03:09:46;;;;;;;2.47;1.30;;;8.70;99.90;;;;;;5068818;28;20882;-64
2021/05/22 03:12:17;;;;;;;2.70;1.17;;;8.70;99.90;;;;;;5069421;28;20455;-65
2021/05/22 03:14:43;;;;;;;3.70;1.00;;;8.70;99.90;;;;;;5069634;28;20450;-65
2021/05/22 03:17:09;;;;;;;2.30;1.17;;;8.70;99.90;;;;;;5069797;28;20534;-65
2021/05/22 03:19:36;;;;;;;2.23;1.07;;;8.80;99.90;;;;;;5069317;28;21001;-64
2021/05/22 03:22:02;;;;;;;2.43;1.00;;;8.80;99.90;;;;;;5073441;28;20837;-63
2021/05/22 03:24:28;;;;;;;2.63;1.30;;;8.80;99.90;;;;;;5074024;28;20443;-65
2021/05/22 03:26:55;;;;;;;2.60;1.27;;;8.80;99.90;;;;;;5073788;28;20478;-65
2021/05/22 03:29:22;;;;;;;1.93;0.90;;;8.80;99.90;;;;;;5073339;28;20818;-63
2021/05/22 03:31:48;;;;;;;2.10;1.20;;;8.90;99.90;;;;;;5074057;28;20459;-64
2021/05/22 03:34:15;;;;;;;2.63;1.20;;;8.90;99.90;;;;;;5074156;28;20455;-62
2021/05/22 03:36:41;;;;;;;3.37;1.53;;;8.90;99.90;;;;;;5073662;28;20466;-64
2021/05/22 03:39:07;;;;;;;3.90;1.50;;;8.90;99.90;;;;;;5073020;28;20451;-64
2021/05/22 03:41:34;;;;;;;4.10;1.27;;;8.90;99.90;;;;;;5073442;28;20527;-64
2021/05/22 03:44:01;;;;;;;3.10;1.27;;;9.00;99.90;;;;;;5073066;28;20487;-65
2021/05/22 03:46:27;;;;;;;3.20;1.17;;;9.00;99.90;;;;;;5073266;28;20499;-65
2021/05/22 03:48:53;;;;;;;7.50;1.60;;;8.90;99.90;;;;;;5073230;28;20473;-63
2021/05/22 03:51:20;;;;;;;3.83;1.63;;;8.90;99.90;;;;;;5073134;28;20485;-64
2021/05/22 03:53:46;;;;;;;4.27;1.53;;;9.00;99.90;;;;;;5073252;28;20455;-65
2021/05/22 03:56:12;;;;;;;2.90;1.30;;;9.00;99.90;;;;;;5073162;28;20449;-64
2021/05/22 03:58:39;;;;;;;3.47;1.60;;;9.10;99.90;;;;;;5073083;28;20874;-64
2021/05/22 04:01:06;;;;;;;5.60;1.87;;;9.10;99.90;;;;;;5073028;28;20477;-65
2021/05/22 04:03:33;;;;;;;2.67;1.57;;;9.20;99.90;;;;;;5073515;28;20454;-64
2021/05/22 04:05:59;;;;;;;4.13;1.70;;;9.20;99.90;;;;;;5072800;28;20483;-64
2021/05/22 04:08:25;;;;;;;3.90;1.53;;;9.30;99.90;;;;;;5072778;28;20523;-64
2021/05/22 04:10:51;;;;;;;5.53;1.97;;;9.30;99.90;;;;;;5072335;28;20473;-63
2021/05/22 04:13:18;;;;;;;3.60;1.47;;;9.30;99.90;;;;;;5073544;28;20911;-64
2021/05/22 04:15:44;;;;;;;6.20;2.10;;;9.30;99.90;;;;;;5072987;28;20442;-65
2021/05/22 04:18:13;;;;;;;2.23;1.43;;;9.30;99.90;;;;;;5073356;28;20542;-64
2021/05/22 04:20:39;;;;;;;3.30;1.60;;;9.30;99.90;;;;;;5072184;28;20489;-65
2021/05/22 04:23:05;;;;;;;4.33;1.97;;;9.40;99.90;;;;;;5072573;28;20461;-64
2021/05/22 04:25:32;;;;;;;5.63;1.63;;;9.40;99.90;;;;;;5072435;28;21150;-64
2021/05/22 04:27:58;;;;;;;3.47;1.60;;;9.50;99.90;;;;;;5072660;28;20451;-65
2021/05/22 04:30:25;;;;;;;4.73;1.53;;;9.50;99.90;;;;;;5072486;28;20474;-64
2021/05/22 04:32:52;;;;;;;2.47;1.40;;;9.60;99.90;;;;;;5071772;28;20455;-64
2021/05/22 04:35:19;;;;;;;3.13;1.30;;;9.60;99.90;;;;;;5072560;28;20524;-63
2021/05/22 04:37:45;;;;;;;3.47;1.70;;;9.60;99.90;;;;;;5072719;28;20508;-66
2021/05/22 04:40:12;;;;;;;2.37;1.10;;;9.60;99.90;;;;;;5071615;28;21011;-65
2021/05/22 04:42:39;;;;;;;2.30;1.40;;;9.40;99.90;;;;;;5072341;28;20835;-65
2021/05/22 04:45:07;;;;;;;2.10;1.20;;;9.30;99.90;;;;;;5072349;28;20451;-65
2021/05/22 04:47:34;;;;;;;3.77;1.40;;;9.20;99.90;;;;;;5072225;28;20487;-66
2021/05/22 04:50:00;;;;;;;3.40;1.40;;;9.10;99.90;;;;;;5071769;28;20479;-66
2021/05/22 04:52:27;;;;;;;4.27;1.60;;;9.00;99.90;;;;;;5072001;28;20530;-66
2021/05/22 04:54:54;;;;;;;2.20;1.80;;;9.00;99.90;;;;;;5071759;28;20451;-66
2021/05/22 04:57:20;;;;;;;3.43;1.33;;;9.00;99.90;;;;;;5071837;28;21183;-66
2021/05/22 04:59:46;;;;;;;1.97;1.00;;;9.10;99.90;;;;;;5071631;28;20475;-66
2021/05/22 05:02:13;;;;;;;2.07;1.00;;;9.10;99.90;;;;;;5071900;28;20950;-64
2021/05/22 05:04:39;;;;;;;2.73;1.07;;;9.10;99.90;;;;;;5071922;28;20447;-61
2021/05/22 05:07:06;;;;;;;3.30;1.37;;;9.20;99.90;;;;;;5068226;28;20479;-64
2021/05/22 05:09:34;;;;;;;2.63;1.20;;;9.40;99.90;;;;;;5064694;28;20471;-61
2021/05/22 05:12:01;;;;;;;3.40;1.23;;;9.50;99.90;;;;;;5071346;28;20961;-60
2021/05/22 05:14:28;;;;;;;3.20;1.10;;;9.50;99.90;;;;;;5065070;28;20462;-64
2021/05/22 05:16:54;;;;;;;4.13;1.50;;;9.50;99.90;;;;;;5064782;28;20444;-64
2021/05/22 05:19:21;;;;;;;2.40;1.27;;;9.60;99.90;;;;;;5070966;28;20470;-63
2021/05/22 05:21:47;;;;;;;3.00;1.07;;;9.70;99.90;;;;;;5071365;28;20458;-63
2021/05/22 05:24:13;;;;;;;1.87;0.73;;;9.80;99.90;;;;;;5071782;28;20512;-63
2021/05/22 05:26:40;;;;;;;2.00;1.10;;;9.90;99.90;;;;;;5071993;28;20689;-63
2021/05/22 05:29:07;;;;;;;5.93;1.30;;;9.90;99.90;;;;;;5071571;28;20538;-61
2021/05/22 05:31:33;;;;;;;4.07;1.20;;;9.90;99.90;;;;;;5072665;28;20881;-63
2021/05/22 05:34:00;;;;;;;2.33;1.10;;;9.90;99.90;;;;;;5071434;28;20447;-60
2021/05/22 05:36:27;;;;;;;4.00;1.10;;;10.00;99.90;;;;;;5070878;28;20451;-63
2021/05/22 05:38:53;;;;;;;3.67;1.27;;;10.10;99.90;;;;;;5070631;28;20450;-65
2021/05/22 05:41:19;;;;;;;5.97;1.37;;;10.20;99.90;;;;;;5070441;28;20471;-63
2021/05/22 05:43:46;;;;;;;2.60;1.50;;;10.30;99.90;;;;;;5069984;28;20594;-63
2021/05/22 05:46:13;;;;;;;3.93;1.07;;;10.40;99.90;;;;;;5070718;28;20553;-63
2021/05/22 05:48:39;;;;;;;2.97;1.00;;;10.60;99.90;;;;;;5070566;28;20455;-62
2021/05/22 05:51:05;;;;;;;4.60;1.43;;;10.80;99.90;;;;;;5070367;28;20467;-64
2021/05/22 05:53:32;;;;;;;6.13;1.30;;;10.80;99.90;;;;;;5071158;28;20529;-63
2021/05/22 05:55:58;;;;;;;2.43;0.90;;;10.70;99.90;;;;;;5070686;28;20477;-63
2021/05/22 05:58:24;;;;;;;2.60;1.67;;;10.70;99.90;;;;;;5071119;28;20472;-66
2021/05/22 06:00:52;;;;;;;2.27;1.27;;;10.70;99.90;;;;;;5070493;28;20471;-65
2021/05/22 06:03:26;;;;;;;3.67;1.30;;;10.80;99.90;;;;;;5070741;28;20517;-66
2021/05/22 06:05:53;;;;;;;3.77;1.20;;;10.90;99.90;;;;;;5070561;28;20493;-66
2021/05/22 06:08:19;;;;;;;2.70;1.13;;;11.10;99.90;;;;;;5070360;28;20474;-66
2021/05/22 06:10:47;;;;;;;3.53;1.70;;;11.30;99.90;;;;;;5070086;28;21335;-63
2021/05/22 06:13:22;;;;;;;4.47;1.40;;;11.40;99.90;;;;;;5070543;28;20443;-64
2021/05/22 06:15:50;;;;;;;2.67;1.23;;;11.40;99.90;;;;;;5070203;28;20464;-64
2021/05/22 06:18:17;;;;;;;3.33;1.27;;;11.40;99.90;;;;;;5070326;28;20458;-65
2021/05/22 06:20:44;;;;;;;4.70;1.57;;;11.40;99.90;;;;;;5069793;28;20562;-63
2021/05/22 06:23:11;;;;;;;5.60;1.60;;;11.40;99.90;;;;;;5070142;28;20474;-64
2021/05/22 06:25:37;;;;;;;3.77;1.17;;;11.50;99.90;;;;;;5070208;28;20443;-64
2021/05/22 06:28:03;;;;;;;2.93;1.20;;;11.60;99.90;;;;;;5070105;28;20489;-64
2021/05/22 06:30:30;;;;;;;4.63;1.30;;;11.80;99.90;;;;;;5069723;28;20466;-64
2021/05/22 06:32:56;;;;;;;5.70;1.40;;;12.10;99.90;;;;;;5070247;28;20451;-64
2021/05/22 06:35:23;;;;;;;4.90;1.50;;;12.40;99.90;;;;;;5070385;28;20454;-64
2021/05/22 06:37:50;;;;;;;3.30;1.10;;;12.60;99.90;;;;;;5069862;28;20526;-65
2021/05/22 06:40:16;;;;;;;2.20;1.20;;;12.70;99.90;;;;;;5069528;28;20481;-64
2021/05/22 06:42:42;;;;;;;4.90;1.40;;;12.90;99.90;;;;;;5069736;28;21005;-64
2021/05/22 06:45:14;;;;;;;3.23;1.40;;;12.90;99.90;;;;;;5069761;28;20538;-63
2021/05/22 06:47:40;;;;;;;3.80;1.20;;;13.00;99.90;;;;;;5069751;28;20487;-65
2021/05/22 06:50:08;;;;;;;4.13;1.20;;;12.90;99.90;;;;;;5069610;28;20853;-64
2021/05/22 06:52:35;;;;;;;3.90;1.40;;;13.10;99.90;;;;;;5069630;28;20496;-65
2021/05/22 06:55:02;;;;;;;4.53;1.07;;;13.10;99.90;;;;;;5069085;28;20882;-65
2021/05/22 06:57:28;;;;;;;3.80;1.63;;;13.10;99.90;;;;;;5069818;28;20455;-64
2021/05/22 06:59:55;;;;;;;4.37;1.40;;;13.30;99.90;;;;;;5069593;28;20559;-63
2021/05/22 07:02:21;;;;;;;3.30;1.47;;;13.60;99.90;;;;;;5069828;28;20938;-65
2021/05/22 07:04:47;;;;;;;3.77;1.20;;;13.50;99.90;;;;;;5069645;28;20558;-64
2021/05/22 07:07:14;;;;;;;4.87;1.37;;;13.30;99.90;;;;;;5069816;28;20485;-64
2021/05/22 07:09:41;;;;;;;5.00;1.20;;;13.10;99.90;;;;;;5069703;28;20466;-66
2021/05/22 07:12:09;;;;;;;2.63;1.20;;;12.60;99.90;;;;;;5070121;28;20996;-63
2021/05/22 07:14:36;;;;;;;4.67;1.43;;;12.30;99.90;;;;;;5070428;28;20513;-63
2021/05/22 07:17:02;;;;;;;2.67;1.10;;;12.10;99.90;;;;;;5070380;28;20936;-63
2021/05/22 07:19:29;;;;;;;3.40;1.37;;;11.90;99.90;;;;;;5069541;28;20894;-65
2021/05/22 07:21:57;;;;;;;6.90;2.03;;;11.90;99.90;;;;;;5070192;28;21248;-64
2021/05/22 07:24:23;;;;;;;3.20;1.03;;;11.90;99.90;;;;;;5069794;28;20484;-65
2021/05/22 07:26:51;;;;;;;5.53;1.50;;;11.80;99.90;;;;;;5069510;28;20479;-65
2021/05/22 07:29:18;;;;;;;3.57;1.60;;;11.70;99.90;;;;;;5069309;28;20545;-65
2021/05/22 07:31:44;;;;;;;5.20;1.53;;;11.80;99.90;;;;;;5069825;28;20542;-64
2021/05/22 07:34:12;;;;;;;3.23;1.73;;;11.90;99.90;;;;;;5069699;28;20458;-64
2021/05/22 07:36:39;;;;;;;2.33;1.30;;;12.10;99.90;;;;;;5069265;28;20439;-65
2021/05/22 07:39:09;;;;;;;6.03;1.43;;;12.20;99.90;;;;;;5068925;28;20451;-65
2021/05/22 07:41:36;;;;;;;3.17;1.50;;;12.30;99.90;;;;;;5069238;28;20497;-65
2021/05/22 07:44:04;;;;;;;4.90;1.60;;;12.50;99.90;;;;;;5069618;28;20867;-65
2021/05/22 07:46:30;;;;;;;5.00;1.80;;;12.60;99.90;;;;;;5069182;28;20500;-64
2021/05/22 07:48:57;;;;;;;3.23;1.27;;;12.70;99.90;;;;;;5069001;28;20536;-65
2021/05/22 07:51:23;;;;;;;6.23;1.73;;;12.70;99.90;;;;;;5069235;28;20876;-64
2021/05/22 07:53:49;;;;;;;5.30;1.87;;;12.90;99.90;;;;;;5069181;28;21160;-65
2021/05/22 07:56:16;;;;;;;6.23;1.57;;;13.10;99.90;;;;;;5065526;28;20830;-64
2021/05/22 07:58:42;;;;;;;3.60;1.90;;;13.10;99.90;;;;;;5068849;28;21195;-61
2021/05/22 08:01:09;;;;;;;5.88;1.63;;;13.00;99.90;;;;;;5067681;28;20521;-64
2021/05/22 08:03:36;;;;;;;4.87;1.60;;;12.90;99.90;;;;;;5068516;28;20205;-64
2021/05/22 08:06:02;;;;;;;4.80;1.43;;;12.90;99.90;;;;;;5068704;28;20478;-64
2021/05/22 08:08:28;;;;;;;5.33;1.40;;;13.00;99.90;;;;;;5067358;28;20443;-64
2021/05/22 08:10:55;;;;;;;1.73;0.90;;;13.20;99.90;;;;;;5071577;28;20478;-63
2021/05/22 08:13:21;;;;;;;4.13;1.40;;;13.50;99.90;;;;;;5071912;28;20461;-63
2021/05/22 08:15:47;;;;;;;3.37;1.23;;;13.70;99.90;;;;;;5072399;28;20454;-64
2021/05/22 08:18:15;;;;;;;4.43;1.63;;;13.90;99.90;;;;;;5071315;28;20493;-65
2021/05/22 08:20:41;;;;;;;4.00;1.10;;;14.30;99.90;;;;;;5071210;28;20465;-64
2021/05/22 08:23:07;;;;;;;3.33;1.20;;;14.60;99.90;;;;;;5072088;28;20573;-67
2021/05/22 08:25:34;;;;;;;4.10;1.17;;;14.60;99.90;;;;;;5071666;28;20447;-63
2021/05/22 08:28:00;;;;;;;4.13;1.57;;;14.80;99.90;;;;;;5072132;28;20486;-65
2021/05/22 08:30:26;;;;;;;3.23;1.00;;;14.70;99.90;;;;;;5071913;28;20483;-65
2021/05/22 08:32:53;;;;;;;5.60;1.70;;;14.70;99.90;;;;;;5072324;28;20446;-64
2021/05/22 08:35:20;;;;;;;4.00;1.27;;;14.70;99.90;;;;;;5072130;28;20809;-64
2021/05/22 08:37:46;;;;;;;4.87;1.37;;;14.80;99.90;;;;;;5071878;28;20530;-64
2021/05/22 08:40:13;;;;;;;4.10;1.30;;;15.20;99.90;;;;;;5071546;28;21150;-64
2021/05/22 08:42:40;;;;;;;3.10;1.60;;;15.40;99.90;;;;;;5072290;28;20453;-62
2021/05/22 08:45:11;;;;;;;2.77;1.20;;;15.30;99.90;;;;;;5072203;28;20451;-64
2021/05/22 08:47:38;;;;;;;2.43;1.03;;;15.40;99.90;;;;;;5071622;28;20482;-64
2021/05/22 08:50:06;;;;;;;2.37;1.00;;;15.50;99.90;;;;;;5071259;28;20463;-64
2021/05/22 08:52:34;;;;;;;2.87;1.30;;;15.40;98.00;;;;;;5071634;28;20443;-63
2021/05/22 08:55:01;;;;;;;2.63;1.00;;;15.20;98.70;;;;;;5072034;28;20457;-60
2021/05/22 08:57:27;;;;;;;2.20;1.20;;;15.10;98.00;;;;;;5071786;28;20517;-63
2021/05/22 08:59:54;;;;;;;5.27;1.43;;;15.10;98.80;;;;;;5071175;28;20897;-65
2021/05/22 09:02:22;;;;;;;3.50;1.30;;;15.20;98.70;;;;;;5071570;28;20486;-64
2021/05/22 09:05:10;;;;;;;3.80;1.10;;;15.40;98.50;;;;;;5067410;28;20454;-64
2021/05/22 09:07:38;;;;;;;6.50;1.73;;;15.40;97.80;;;;;;5067698;28;20479;-63
2021/05/22 09:10:10;;;;;;;2.93;1.03;;;15.40;97.10;;;;;;5068363;28;20471;-64
2021/05/22 09:12:38;;;;;;;6.63;2.00;;;15.30;97.70;;;;;;5063677;28;20562;-64
2021/05/22 09:15:09;;;;;;;3.20;1.90;;;15.30;98.00;;;;;;5064521;28;20443;-65
2021/05/22 09:17:35;;;;;;;4.43;1.60;;;15.40;96.60;;;;;;5067292;28;20462;-64
2021/05/22 09:20:14;;;;;;;3.37;1.30;;;15.10;94.60;;;;;;5067248;28;20523;-65
2021/05/22 09:22:42;;;;;;;2.40;1.27;;;14.80;96.10;;;;;;5068063;28;20890;-65
2021/05/22 09:25:10;;;;;;;2.50;1.20;;;14.70;96.10;;;;;;5068571;28;20459;-65
2021/05/22 09:27:38;;;;;;;4.20;1.63;;;14.60;96.10;;;;;;5067530;28;20539;-66
2021/05/22 09:30:09;;;;;;;3.13;1.37;;;14.50;95.90;;;;;;5066503;28;20466;-66
2021/05/22 09:32:35;;;;;;;3.73;1.43;;;14.80;95.40;;;;;;5064147;28;20442;-66
2021/05/22 09:35:03;;;;;;;2.93;1.40;;;15.10;95.60;;;;;;5063986;28;21262;-65
2021/05/22 09:37:29;;;;;;;6.33;1.37;;;15.00;95.10;;;;;;5061818;28;20457;-65
2021/05/22 09:39:57;;;;;;;2.53;1.33;;;14.80;95.90;;;;;;5066169;28;20473;-65
2021/05/22 09:42:29;;;;;;;5.70;1.50;;;14.70;95.10;;;;;;5065765;28;20451;-69
2021/05/22 09:44:55;;;;;;;2.70;1.10;;;14.80;93.70;;;;;;5060524;28;20459;-64
2021/05/22 09:47:22;;;;;;;3.80;1.20;;;15.10;93.00;;;;;;5067766;28;20577;-65
2021/05/22 09:49:50;;;;;;;1.90;0.90;;;16.00;91.70;;;;;;5066813;28;20463;-64
2021/05/22 09:52:18;;;;;;;4.30;1.20;;;17.00;90.10;;;;;;5061028;28;21175;-65
2021/05/22 09:54:47;;;;;;;4.00;1.27;;;17.90;89.90;;;;;;5067755;28;21001;-65
2021/05/22 09:57:16;;;;;;;2.47;0.70;;;18.90;85.00;;;;;;5067400;28;20843;-64
2021/05/22 09:59:43;;;;;;;3.33;1.10;;;19.20;81.20;;;;;;5066875;28;20596;-65
2021/05/22 10:02:10;;;;;;;3.13;1.13;;;19.80;78.20;;;;;;5067613;28;20478;-64
2021/05/22 10:04:37;;;;;;;4.80;1.07;;;19.30;75.30;;;;;;5067108;28;20516;-64
2021/05/22 10:07:03;;;;;;;3.10;1.23;;;19.20;73.90;;;;;;5066607;28;20552;-64
2021/05/22 10:09:30;;;;;;;3.10;1.00;;;18.40;76.80;;;;;;5066385;28;20512;-64
2021/05/22 10:12:09;;;;;;;3.47;1.00;;;18.00;78.30;;;;;;5066446;28;20475;-65
2021/05/22 10:14:37;;;;;;;2.40;1.03;;;17.70;78.60;;;;;;5062170;28;20532;-64
2021/05/22 10:17:05;;;;;;;4.47;0.80;;;18.00;81.70;;;;;;5067060;28;20443;-68
2021/05/22 10:19:32;;;;;;;2.43;1.13;;;18.30;79.60;;;;;;5066341;28;20478;-65
2021/05/22 10:21:59;;;;;;;2.40;0.90;;;18.70;78.60;;;;;;5066887;28;21003;-66
2021/05/22 10:24:27;;;;;;;2.60;0.90;;;19.60;75.60;;;;;;5066425;28;20458;-65
2021/05/22 10:26:54;;;;;;;3.90;1.40;;;19.90;73.70;;;;;;5067216;28;20852;-66
2021/05/22 10:29:21;;;;;;;3.47;1.10;;;19.50;73.70;;;;;;5066472;28;20457;-64
2021/05/22 10:31:50;;;;;;;3.27;1.27;;;19.00;74.10;;;;;;5066515;28;21174;-65
2021/05/22 10:34:20;;;;;;;3.03;1.00;;;18.10;77.30;;;;;;5067020;28;20451;-66
2021/05/22 10:36:52;;;;;;;2.27;1.00;;;17.80;77.00;;;;;;5066463;28;20447;-64
2021/05/22 10:39:39;;;;;;;4.53;1.20;;;18.10;80.60;;;;;;5066483;28;20867;-65
2021/05/22 10:42:07;;;;;;;3.43;1.10;;;17.80;77.30;;;;;;5067006;28;20465;-66
2021/05/22 10:44:38;;;;;;;2.73;0.97;;;17.80;76.10;;;;;;5066623;28;20451;-65
2021/05/22 10:47:09;;;;;;;3.60;1.70;;;18.30;73.60;;;;;;5066394;28;20489;-65
2021/05/22 10:49:54;;;;;;;2.27;1.03;;;18.60;74.20;;;;;;5066452;28;21011;-64
2021/05/22 10:52:22;;;;;;;3.50;1.00;;;19.40;71.70;;;;;;5066039;28;21132;-65
2021/05/22 10:55:00;;;;;;;2.87;0.90;;;19.90;67.00;;;;;;5067272;28;20461;-64
2021/05/22 10:57:27;;;;;;;3.13;1.77;;;19.60;64.70;;;;;;5067269;28;20529;-65
2021/05/22 11:00:23;;;;;;;3.13;1.40;;;19.50;64.20;;;;;;5066799;28;20477;-65
2021/05/22 11:02:52;;;;;;;4.70;1.20;;;19.90;71.20;;;;;;5066942;28;20446;-65
2021/05/22 11:05:37;;;;;;;2.53;0.90;;;20.90;65.80;;;;;;5066537;28;20465;-66
2021/05/22 11:08:32;;;;;;;3.07;1.10;;;21.60;65.40;;;;;;5066835;28;20510;-65
2021/05/22 11:11:01;;;;;;;3.83;1.10;;;22.20;61.40;;;;;;5060956;28;20467;-65
2021/05/22 11:13:38;;;;;;;3.37;1.30;;;22.30;61.30;;;;;;5067212;28;20450;-65
2021/05/22 11:16:08;;;;;;;3.23;1.60;;;21.90;58.40;;;;;;5067381;28;20575;-65
2021/05/22 11:18:59;;;;;;;4.37;1.00;;;20.30;57.90;;;;;;5067300;28;20443;-66
2021/05/22 11:21:26;;;;;;;3.77;1.10;;;20.00;63.00;;;;;;5064124;28;21011;-65
2021/05/22 11:24:12;;;;;;;3.90;1.37;;;19.30;62.20;;;;;;5060810;28;20883;-65
2021/05/22 11:26:57;;;;;;;3.40;1.03;;;18.80;67.60;;;;;;5064859;28;20490;-65
2021/05/22 11:29:40;;;;;;;7.97;1.43;;;18.90;65.40;;;;;;5062126;28;20467;-66
2021/05/22 11:32:45;;;;;;;2.57;0.80;;;18.90;64.90;;;;;;5063013;28;20476;-65
2021/05/22 11:35:36;;;;;;;4.63;1.37;;;20.20;60.40;;;;;;5064517;28;20447;-65
2021/05/22 11:38:29;;;;;;;4.33;1.00;;;20.70;61.60;;;;;;5063415;28;20439;-65
2021/05/22 11:40:56;;;;;;;3.10;1.00;;;21.20;60.40;;;;;;5066965;28;20471;-65
2021/05/22 11:43:23;;;;;;;2.00;0.90;;;20.20;56.70;;;;;;5070852;28;20973;-65
2021/05/22 11:45:51;;;;;;;2.77;1.00;;;20.00;60.80;;;;;;5070453;28;20840;-65
2021/05/22 11:48:22;;;;;;;2.90;1.10;;;19.10;58.20;;;;;;5070756;28;20493;-65
2021/05/22 11:50:49;;;;;;;3.23;1.17;;;19.00;60.90;;;;;;5069958;28;20467;-65
2021/05/22 11:53:17;;;;;;;2.70;0.90;;;18.60;61.70;;;;;;5070660;28;20547;-65
2021/05/22 11:55:44;;;;;;;2.73;1.10;;;18.30;64.00;;;;;;5070614;28;20450;-65
2021/05/22 11:58:12;;;;;;;3.50;0.90;;;18.50;66.50;;;;;;5070166;28;20541;-65
2021/05/22 12:00:38;;;;;;;2.30;0.87;;;18.50;61.50;;;;;;5069891;28;21034;-64
2021/05/22 12:03:06;;;;;;;4.53;1.97;;;18.10;64.60;;;;;;5069295;28;20449;-64
2021/05/22 12:05:39;;;;;;;3.63;1.37;;;18.40;65.20;;;;;;5070170;28;20451;-64
2021/05/22 12:08:14;;;;;;;2.63;0.97;;;19.30;66.90;;;;;;5068468;28;20494;-64
2021/05/22 12:10:41;;;;;;;3.07;1.03;;;20.40;61.60;;;;;;5071257;28;20492;-64
2021/05/22 12:13:07;;;;;;;4.23;1.47;;;20.80;59.90;;;;;;5071927;28;20514;-64
2021/05/22 12:15:34;;;;;;;7.00;2.47;;;21.70;58.60;;;;;;5071825;28;21139;-64
2021/05/22 12:18:01;;;;;;;8.90;2.70;;;21.20;58.60;;;;;;5072014;28;20501;-64
2021/05/22 12:20:27;;;;;;;5.67;2.20;;;20.60;59.10;;;;;;5071797;28;20467;-65
2021/05/22 12:22:54;;;;;;;2.53;0.90;;;19.30;59.60;;;;;;5070377;28;20834;-64
2021/05/22 12:25:22;;;;;;;5.87;1.03;;;18.50;60.70;;;;;;5071427;28;20478;-64
2021/05/22 12:27:48;;;;;;;2.90;1.23;;;18.40;63.40;;;;;;5071889;28;20470;-65
2021/05/22 12:30:16;;;;;;;1.97;1.37;;;18.20;63.80;;;;;;5071280;28;20473;-65
2021/05/22 12:32:43;;;;;;;4.70;1.50;;;18.90;63.30;;;;;;5071958;28;20533;-64
2021/05/22 12:35:11;;;;;;;2.20;0.80;;;20.00;59.30;;;;;;5071422;28;20826;-65
2021/05/22 12:37:37;;;;;;;2.70;1.10;;;21.10;59.50;;;;;;5067498;28;20487;-64
2021/05/22 12:40:06;;;;;;;10.07;3.67;;;22.30;60.00;;;;;;5068824;28;20495;-64
2021/05/22 12:42:35;;;;;;;4.37;1.30;;;23.20;57.20;;;;;;5070217;28;20439;-63
2021/05/22 12:45:12;;;;;;;4.87;1.33;;;23.20;57.10;;;;;;5070117;28;20873;-64
2021/05/22 12:47:40;;;;;;;2.53;0.90;;;22.00;56.40;;;;;;5071515;28;20546;-65
2021/05/22 12:50:09;;;;;;;6.80;2.40;;;21.20;59.00;;;;;;5065722;28;20475;-64
2021/05/22 12:52:49;;;;;;;3.83;1.70;;;20.10;57.50;;;;;;5069191;28;21081;-64
2021/05/22 12:55:20;;;;;;;3.73;0.97;;;19.20;60.80;;;;;;5071261;28;20447;-63
2021/05/22 12:57:48;;;;;;;2.80;1.03;;;18.80;60.40;;;;;;5071324;28;20446;-64
2021/05/22 13:00:17;;;;;;;2.93;0.70;;;18.40;61.70;;;;;;5070623;28;20473;-65